Time,TemperatureF,DewpointF,PressureIn,WindDirection,WindDirectionDegrees,WindSpeedMPH,WindSpeedGustMPH,Humidity,HourlyPrecipIn,Conditions,Clouds,dailyrainin,SoftwareType,DateUTC
2013-03-13 00:00:00,40.6,32.1,29.74,North,-999,-999.0,-999.0,71,0.00,,,0.00,tws,2013-03-13 04:00:00,
2013-03-13 00:05:00,40.7,32.0,29.74,North,-999,-999.0,-999.0,70,0.00,,,0.00,tws,2013-03-13 04:05:00,
2013-03-13 00:10:00,40.9,32.2,29.74,North,-999,-999.0,-999.0,70,0.00,,,0.00,tws,2013-03-13 04:10:00,
2013-03-13 00:15:00,41.1,32.3,29.74,North,-999,-999.0,-999.0,70,0.00,,,0.00,tws,2013-03-13 04:15:00,
2013-03-13 00:20:00,41.1,32.5,29.74,North,-999,-999.0,-999.0,71,0.00,,,0.00,tws,2013-03-13 04:20:00,
2013-03-13 00:25:00,41.1,31.8,29.74,North,-999,-999.0,-999.0,69,0.00,,,0.00,tws,2013-03-13 04:25:00,
2013-03-13 00:30:00,41.2,32.0,29.74,North,-999,-999.0,-999.0,69,0.00,,,0.00,tws,2013-03-13 04:30:00,
2013-03-13 00:35:00,41.3,32.2,29.74,North,-999,-999.0,-999.0,69,0.00,,,0.00,tws,2013-03-13 04:35:00,
2013-03-13 00:40:00,41.3,32.1,29.74,North,-999,-999.0,-999.0,69,0.00,,,0.00,tws,2013-03-13 04:40:00,
2013-03-13 00:45:00,41.3,32.1,29.73,North,-999,-999.0,-999.0,69,0.00,,,0.00,tws,2013-03-13 04:45:00,
2013-03-13 00:50:00,41.4,31.5,29.73,North,-999,-999.0,-999.0,67,0.00,,,0.00,tws,2013-03-13 04:50:00,
2013-03-13 00:55:00,41.5,31.6,29.73,North,-999,-999.0,-999.0,67,0.00,,,0.00,tws,2013-03-13 04:55:00,
2013-03-13 01:00:00,41.7,31.7,29.73,North,-999,-999.0,-999.0,67,0.00,,,0.00,tws,2013-03-13 05:00:00,
2013-03-13 01:05:00,41.7,32.0,29.73,North,-999,-999.0,-999.0,68,0.00,,,0.00,tws,2013-03-13 05:05:00,
2013-03-13 01:10:00,41.6,31.7,29.73,North,-999,-999.0,-999.0,67,0.00,,,0.00,tws,2013-03-13 05:10:00,
2013-03-13 01:15:00,41.6,31.7,29.73,North,-999,-999.0,-999.0,67,0.00,,,0.00,tws,2013-03-13 05:15:00,
2013-03-13 01:20:00,41.5,31.7,29.72,North,-999,-999.0,-999.0,67,0.00,,,0.00,tws,2013-03-13 05:20:00,
2013-03-13 01:25:00,41.4,31.9,29.73,North,-999,-999.0,-999.0,68,0.00,,,0.00,tws,2013-03-13 05:25:00,
2013-03-13 01:30:00,41.4,31.2,29.72,North,-999,-999.0,-999.0,66,0.00,,,0.00,tws,2013-03-13 05:30:00,
2013-03-13 01:35:00,41.4,31.1,29.72,North,-999,-999.0,-999.0,66,0.00,,,0.00,tws,2013-03-13 05:35:00,
2013-03-13 01:40:00,41.5,31.1,29.73,North,-999,-999.0,-999.0,66,0.00,,,0.00,tws,2013-03-13 05:40:00,
2013-03-13 01:45:00,41.5,31.2,29.73,North,-999,-999.0,-999.0,66,0.00,,,0.00,tws,2013-03-13 05:45:00,
2013-03-13 01:50:00,41.4,31.1,29.73,North,-999,-999.0,-999.0,66,0.00,,,0.00,tws,2013-03-13 05:50:00,
2013-03-13 01:55:00,41.3,31.0,29.72,North,-999,-999.0,-999.0,66,0.00,,,0.00,tws,2013-03-13 05:55:00,
2013-03-13 02:00:00,41.3,31.0,29.73,North,-999,-999.0,-999.0,66,0.00,,,0.00,tws,2013-03-13 06:00:00,
2013-03-13 02:05:00,41.2,31.0,29.73,North,-999,-999.0,-999.0,66,0.00,,,0.00,tws,2013-03-13 06:05:00,
2013-03-13 02:10:00,41.1,31.0,29.73,North,-999,-999.0,-999.0,67,0.00,,,0.00,tws,2013-03-13 06:10:00,
2013-03-13 02:15:00,40.9,30.9,29.73,North,-999,-999.0,-999.0,67,0.00,,,0.00,tws,2013-03-13 06:15:00,
2013-03-13 02:20:00,40.8,30.6,29.73,North,-999,-999.0,-999.0,66,0.00,,,0.00,tws,2013-03-13 06:20:00,
2013-03-13 02:25:00,40.8,30.6,29.73,North,-999,-999.0,-999.0,66,0.00,,,0.00,tws,2013-03-13 06:25:00,
2013-03-13 02:35:00,40.6,31.0,29.73,North,-999,-999.0,-999.0,68,0.00,,,0.00,tws,2013-03-13 06:35:00,
2013-03-13 02:40:00,40.5,31.0,29.72,North,-999,-999.0,-999.0,68,0.00,,,0.00,tws,2013-03-13 06:40:00,
2013-03-13 02:50:00,40.3,30.5,29.73,North,-999,-999.0,-999.0,67,0.00,,,0.00,tws,2013-03-13 06:50:00,
2013-03-13 02:55:00,40.1,30.1,29.73,North,-999,-999.0,-999.0,66,0.00,,,0.00,tws,2013-03-13 06:55:00,
2013-03-13 03:00:00,40.0,30.0,29.73,North,-999,-999.0,-999.0,67,0.00,,,0.00,tws,2013-03-13 07:00:00,
2013-03-13 03:10:00,39.9,29.6,29.73,North,-999,-999.0,-999.0,66,0.00,,,0.00,tws,2013-03-13 07:10:00,
2013-03-13 03:15:00,39.8,29.8,29.73,North,-999,-999.0,-999.0,66,0.00,,,0.00,tws,2013-03-13 07:15:00,
2013-03-13 03:20:00,39.7,29.4,29.72,North,-999,-999.0,-999.0,66,0.00,,,0.00,tws,2013-03-13 07:20:00,
2013-03-13 03:25:00,39.6,28.9,29.72,North,-999,-999.0,-999.0,65,0.00,,,0.00,tws,2013-03-13 07:25:00,
2013-03-13 03:30:00,39.5,28.6,29.73,North,-999,-999.0,-999.0,64,0.00,,,0.00,tws,2013-03-13 07:30:00,
2013-03-13 03:35:00,39.3,27.5,29.72,North,-999,-999.0,-999.0,62,0.00,,,0.00,tws,2013-03-13 07:35:00,
2013-03-13 03:45:00,39.0,26.5,29.73,North,-999,-999.0,-999.0,60,0.00,,,0.00,tws,2013-03-13 07:45:00,
2013-03-13 03:50:00,39.0,26.7,29.72,North,-999,-999.0,-999.0,61,0.00,,,0.00,tws,2013-03-13 07:50:00,
2013-03-13 03:55:00,38.8,25.2,29.72,North,-999,-999.0,-999.0,57,0.00,,,0.00,tws,2013-03-13 07:55:00,
2013-03-13 04:00:00,38.7,24.6,29.72,North,-999,-999.0,-999.0,56,0.00,,,0.00,tws,2013-03-13 08:00:00,
2013-03-13 04:05:00,38.7,24.5,29.72,North,-999,-999.0,-999.0,56,0.00,,,0.00,tws,2013-03-13 08:05:00,
2013-03-13 04:10:00,38.7,25.1,29.72,North,-999,-999.0,-999.0,57,0.00,,,0.00,tws,2013-03-13 08:10:00,
2013-03-13 04:20:00,38.4,25.3,29.72,North,-999,-999.0,-999.0,58,0.00,,,0.00,tws,2013-03-13 08:20:00,
2013-03-13 04:25:00,38.2,24.7,29.72,North,-999,-999.0,-999.0,58,0.00,,,0.00,tws,2013-03-13 08:25:00,
2013-03-13 04:30:00,38.2,23.6,29.72,North,-999,-999.0,-999.0,55,0.00,,,0.00,tws,2013-03-13 08:30:00,
2013-03-13 04:35:00,38.2,23.9,29.72,North,-999,-999.0,-999.0,55,0.00,,,0.00,tws,2013-03-13 08:35:00,
2013-03-13 04:40:00,38.2,24.5,29.72,North,-999,-999.0,-999.0,57,0.00,,,0.00,tws,2013-03-13 08:40:00,
2013-03-13 04:45:00,38.1,24.6,29.72,North,-999,-999.0,-999.0,58,0.00,,,0.00,tws,2013-03-13 08:45:00,
2013-03-13 04:50:00,38.0,25.3,29.72,North,-999,-999.0,-999.0,59,0.00,,,0.00,tws,2013-03-13 08:50:00,
2013-03-13 04:55:00,37.8,24.2,29.72,North,-999,-999.0,-999.0,57,0.00,,,0.00,tws,2013-03-13 08:55:00,
2013-03-13 05:00:00,38.0,24.3,29.72,North,-999,-999.0,-999.0,57,0.00,,,0.00,tws,2013-03-13 09:00:00,
2013-03-13 05:05:00,38.0,24.0,29.72,North,-999,-999.0,-999.0,56,0.00,,,0.00,tws,2013-03-13 09:05:00,
2013-03-13 05:10:00,38.1,24.5,29.72,North,-999,-999.0,-999.0,57,0.00,,,0.00,tws,2013-03-13 09:10:00,
2013-03-13 05:15:00,37.9,24.5,29.72,North,-999,-999.0,-999.0,58,0.00,,,0.00,tws,2013-03-13 09:15:00,
2013-03-13 05:20:00,37.8,25.2,29.72,North,-999,-999.0,-999.0,59,0.00,,,0.00,tws,2013-03-13 09:20:00,
2013-03-13 05:25:00,37.6,25.7,29.72,North,-999,-999.0,-999.0,61,0.00,,,0.00,tws,2013-03-13 09:25:00,
2013-03-13 05:30:00,37.4,25.5,29.72,North,-999,-999.0,-999.0,62,0.00,,,0.00,tws,2013-03-13 09:30:00,
2013-03-13 05:35:00,37.2,25.8,29.72,North,-999,-999.0,-999.0,63,0.00,,,0.00,tws,2013-03-13 09:35:00,
2013-03-13 05:40:00,36.9,26.0,29.72,North,-999,-999.0,-999.0,64,0.00,,,0.00,tws,2013-03-13 09:40:00,
2013-03-13 05:45:00,36.8,26.1,29.72,North,-999,-999.0,-999.0,65,0.00,,,0.00,tws,2013-03-13 09:45:00,
2013-03-13 05:50:00,36.6,25.8,29.72,North,-999,-999.0,-999.0,64,0.00,,,0.00,tws,2013-03-13 09:50:00,
2013-03-13 05:55:00,36.6,26.2,29.72,North,-999,-999.0,-999.0,65,0.00,,,0.00,tws,2013-03-13 09:55:00,
2013-03-13 06:00:00,36.6,26.3,29.72,North,-999,-999.0,-999.0,66,0.00,,,0.00,tws,2013-03-13 10:00:00,
2013-03-13 06:05:00,36.5,26.2,29.72,North,-999,-999.0,-999.0,66,0.00,,,0.00,tws,2013-03-13 10:05:00,
2013-03-13 06:10:00,36.3,26.3,29.72,North,-999,-999.0,-999.0,66,0.00,,,0.00,tws,2013-03-13 10:10:00,
2013-03-13 06:15:00,36.0,26.3,29.72,North,-999,-999.0,-999.0,67,0.00,,,0.00,tws,2013-03-13 10:15:00,
2013-03-13 06:20:00,35.9,26.1,29.73,North,-999,-999.0,-999.0,67,0.00,,,0.00,tws,2013-03-13 10:20:00,
2013-03-13 06:25:00,35.8,26.2,29.72,North,-999,-999.0,-999.0,67,0.00,,,0.00,tws,2013-03-13 10:25:00,
2013-03-13 06:30:00,35.9,25.3,29.73,North,-999,-999.0,-999.0,65,0.00,,,0.00,tws,2013-03-13 10:30:00,
2013-03-13 06:35:00,36.1,25.6,29.73,North,-999,-999.0,-999.0,65,0.00,,,0.00,tws,2013-03-13 10:35:00,
2013-03-13 06:40:00,36.3,25.3,29.73,North,-999,-999.0,-999.0,64,0.00,,,0.00,tws,2013-03-13 10:40:00,
2013-03-13 06:45:00,36.4,25.8,29.73,North,-999,-999.0,-999.0,65,0.00,,,0.00,tws,2013-03-13 10:45:00,
2013-03-13 06:50:00,36.2,25.9,29.73,North,-999,-999.0,-999.0,65,0.00,,,0.00,tws,2013-03-13 10:50:00,
2013-03-13 06:55:00,36.3,25.6,29.73,North,-999,-999.0,-999.0,64,0.00,,,0.00,tws,2013-03-13 10:55:00,
2013-03-13 07:00:00,36.4,25.8,29.73,North,-999,-999.0,-999.0,65,0.00,,,0.00,tws,2013-03-13 11:00:00,
2013-03-13 07:05:00,36.4,25.9,29.74,North,-999,-999.0,-999.0,65,0.00,,,0.00,tws,2013-03-13 11:05:00,
2013-03-13 07:10:00,36.4,26.4,29.74,North,-999,-999.0,-999.0,66,0.00,,,0.00,tws,2013-03-13 11:10:00,
2013-03-13 07:15:00,36.3,26.1,29.74,North,-999,-999.0,-999.0,66,0.00,,,0.00,tws,2013-03-13 11:15:00,
2013-03-13 07:20:00,36.2,26.5,29.73,North,-999,-999.0,-999.0,67,0.00,,,0.00,tws,2013-03-13 11:20:00,
2013-03-13 07:25:00,36.1,26.2,29.73,North,-999,-999.0,-999.0,67,0.00,,,0.00,tws,2013-03-13 11:25:00,
2013-03-13 07:30:00,36.2,25.7,29.73,North,-999,-999.0,-999.0,65,0.00,,,0.00,tws,2013-03-13 11:30:00,
2013-03-13 07:35:00,36.3,26.0,29.73,North,-999,-999.0,-999.0,66,0.00,,,0.00,tws,2013-03-13 11:35:00,
2013-03-13 07:40:00,36.2,26.3,29.73,North,-999,-999.0,-999.0,66,0.00,,,0.00,tws,2013-03-13 11:40:00,
2013-03-13 07:45:00,36.2,26.3,29.73,North,-999,-999.0,-999.0,67,0.00,,,0.00,tws,2013-03-13 11:45:00,
2013-03-13 07:50:00,36.2,26.2,29.73,North,-999,-999.0,-999.0,66,0.00,,,0.00,tws,2013-03-13 11:50:00,
2013-03-13 07:55:00,36.3,26.0,29.74,North,-999,-999.0,-999.0,65,0.00,,,0.00,tws,2013-03-13 11:55:00,
2013-03-13 08:00:00,36.5,26.1,29.74,North,-999,-999.0,-999.0,65,0.00,,,0.00,tws,2013-03-13 12:00:00,
2013-03-13 08:05:00,36.8,26.4,29.74,North,-999,-999.0,-999.0,65,0.00,,,0.00,tws,2013-03-13 12:05:00,
2013-03-13 08:10:00,37.0,27.0,29.74,North,-999,-999.0,-999.0,66,0.00,,,0.00,tws,2013-03-13 12:10:00,
2013-03-13 08:15:00,37.0,27.3,29.74,North,-999,-999.0,-999.0,67,0.00,,,0.00,tws,2013-03-13 12:15:00,
2013-03-13 08:20:00,36.9,27.1,29.74,North,-999,-999.0,-999.0,67,0.00,,,0.00,tws,2013-03-13 12:20:00,
2013-03-13 08:25:00,37.1,27.0,29.74,North,-999,-999.0,-999.0,66,0.00,,,0.00,tws,2013-03-13 12:25:00,
2013-03-13 08:30:00,37.4,26.9,29.75,North,-999,-999.0,-999.0,65,0.00,,,0.00,tws,2013-03-13 12:30:00,
2013-03-13 08:35:00,37.7,27.1,29.75,North,-999,-999.0,-999.0,65,0.00,,,0.00,tws,2013-03-13 12:35:00,
2013-03-13 08:40:00,38.3,27.2,29.75,North,-999,-999.0,-999.0,64,0.00,,,0.00,tws,2013-03-13 12:40:00,
2013-03-13 08:45:00,38.5,27.0,29.75,North,-999,-999.0,-999.0,63,0.00,,,0.00,tws,2013-03-13 12:45:00,
2013-03-13 08:50:00,38.7,26.9,29.75,North,-999,-999.0,-999.0,62,0.00,,,0.00,tws,2013-03-13 12:50:00,
2013-03-13 08:55:00,39.3,27.6,29.76,North,-999,-999.0,-999.0,62,0.00,,,0.00,tws,2013-03-13 12:55:00,
2013-03-13 09:00:00,39.7,27.7,29.75,North,-999,-999.0,-999.0,61,0.00,,,0.00,tws,2013-03-13 13:00:00,
2013-03-13 09:05:00,39.8,27.5,29.75,North,-999,-999.0,-999.0,61,0.00,,,0.00,tws,2013-03-13 13:05:00,
2013-03-13 09:10:00,39.9,27.9,29.75,North,-999,-999.0,-999.0,61,0.00,,,0.00,tws,2013-03-13 13:10:00,
2013-03-13 09:15:00,40.4,28.1,29.75,North,-999,-999.0,-999.0,61,0.00,,,0.00,tws,2013-03-13 13:15:00,
2013-03-13 09:20:00,40.8,28.1,29.75,North,-999,-999.0,-999.0,60,0.00,,,0.00,tws,2013-03-13 13:20:00,
2013-03-13 09:25:00,40.4,28.0,29.76,North,-999,-999.0,-999.0,60,0.00,,,0.00,tws,2013-03-13 13:25:00,
2013-03-13 09:30:00,39.9,27.6,29.76,North,-999,-999.0,-999.0,61,0.00,,,0.00,tws,2013-03-13 13:30:00,
2013-03-13 09:35:00,39.5,28.0,29.76,North,-999,-999.0,-999.0,62,0.00,,,0.00,tws,2013-03-13 13:35:00,
2013-03-13 09:40:00,39.3,28.0,29.76,North,-999,-999.0,-999.0,63,0.00,,,0.00,tws,2013-03-13 13:40:00,
2013-03-13 09:50:00,38.8,28.3,29.77,North,-999,-999.0,-999.0,65,0.00,,,0.00,tws,2013-03-13 13:50:00,
2013-03-13 09:55:00,38.8,28.4,29.77,North,-999,-999.0,-999.0,66,0.00,,,0.00,tws,2013-03-13 13:55:00,
2013-03-13 10:05:00,39.8,28.1,29.77,North,-999,-999.0,-999.0,62,0.00,,,0.00,tws,2013-03-13 14:05:00,
2013-03-13 10:10:00,40.3,28.3,29.77,North,-999,-999.0,-999.0,62,0.00,,,0.00,tws,2013-03-13 14:10:00,
2013-03-13 10:15:00,40.7,28.6,29.77,North,-999,-999.0,-999.0,61,0.00,,,0.00,tws,2013-03-13 14:15:00,
2013-03-13 10:20:00,41.2,28.5,29.77,North,-999,-999.0,-999.0,60,0.00,,,0.00,tws,2013-03-13 14:20:00,
2013-03-13 10:25:00,42.0,29.2,29.77,North,-999,-999.0,-999.0,60,0.00,,,0.00,tws,2013-03-13 14:25:00,
2013-03-13 10:30:00,42.3,28.6,29.77,North,-999,-999.0,-999.0,58,0.00,,,0.00,tws,2013-03-13 14:30:00,
2013-03-13 10:35:00,42.4,28.7,29.77,North,-999,-999.0,-999.0,57,0.00,,,0.00,tws,2013-03-13 14:35:00,
2013-03-13 10:40:00,43.1,29.4,29.77,North,-999,-999.0,-999.0,57,0.00,,,0.00,tws,2013-03-13 14:40:00,
2013-03-13 10:45:00,43.1,28.4,29.77,North,-999,-999.0,-999.0,55,0.00,,,0.00,tws,2013-03-13 14:45:00,
2013-03-13 10:50:00,42.3,27.7,29.77,North,-999,-999.0,-999.0,56,0.00,,,0.00,tws,2013-03-13 14:50:00,
2013-03-13 10:55:00,42.0,28.4,29.77,North,-999,-999.0,-999.0,58,0.00,,,0.00,tws,2013-03-13 14:55:00,
2013-03-13 11:00:00,42.2,27.7,29.77,North,-999,-999.0,-999.0,56,0.00,,,0.00,tws,2013-03-13 15:00:00,
2013-03-13 11:05:00,42.3,27.5,29.77,North,-999,-999.0,-999.0,55,0.00,,,0.00,tws,2013-03-13 15:05:00,
2013-03-13 11:10:00,42.4,27.9,29.77,North,-999,-999.0,-999.0,55,0.00,,,0.00,tws,2013-03-13 15:10:00,
2013-03-13 11:15:00,42.8,28.0,29.77,North,-999,-999.0,-999.0,55,0.00,,,0.00,tws,2013-03-13 15:15:00,
2013-03-13 11:20:00,42.9,27.7,29.77,North,-999,-999.0,-999.0,54,0.00,,,0.00,tws,2013-03-13 15:20:00,
2013-03-13 11:25:00,41.8,27.2,29.77,North,-999,-999.0,-999.0,55,0.00,,,0.00,tws,2013-03-13 15:25:00,
2013-03-13 11:30:00,41.3,27.0,29.77,North,-999,-999.0,-999.0,56,0.00,,,0.00,tws,2013-03-13 15:30:00,
2013-03-13 11:35:00,41.7,27.5,29.77,North,-999,-999.0,-999.0,56,0.00,,,0.00,tws,2013-03-13 15:35:00,
2013-03-13 11:40:00,42.3,27.0,29.77,North,-999,-999.0,-999.0,54,0.00,,,0.00,tws,2013-03-13 15:40:00,
2013-03-13 11:45:00,42.0,26.1,29.77,North,-999,-999.0,-999.0,52,0.00,,,0.00,tws,2013-03-13 15:45:00,
2013-03-13 11:55:00,41.7,25.9,29.77,North,-999,-999.0,-999.0,53,0.00,,,0.00,tws,2013-03-13 15:55:00,
2013-03-13 12:00:00,41.5,26.0,29.77,North,-999,-999.0,-999.0,53,0.00,,,0.00,tws,2013-03-13 16:00:00,
2013-03-13 12:05:00,41.6,26.2,29.77,North,-999,-999.0,-999.0,54,0.00,,,0.00,tws,2013-03-13 16:05:00,
2013-03-13 12:10:00,41.4,26.0,29.77,North,-999,-999.0,-999.0,54,0.00,,,0.00,tws,2013-03-13 16:10:00,
2013-03-13 12:15:00,42.1,26.1,29.77,North,-999,-999.0,-999.0,52,0.00,,,0.00,tws,2013-03-13 16:15:00,
2013-03-13 12:20:00,42.6,26.1,29.77,North,-999,-999.0,-999.0,51,0.00,,,0.00,tws,2013-03-13 16:20:00,
2013-03-13 12:25:00,43.5,26.9,29.76,North,-999,-999.0,-999.0,51,0.00,,,0.00,tws,2013-03-13 16:25:00,
2013-03-13 12:30:00,43.8,26.2,29.76,North,-999,-999.0,-999.0,49,0.00,,,0.00,tws,2013-03-13 16:30:00,
2013-03-13 12:35:00,44.0,26.2,29.76,North,-999,-999.0,-999.0,49,0.00,,,0.00,tws,2013-03-13 16:35:00,
2013-03-13 12:40:00,43.8,25.6,29.76,North,-999,-999.0,-999.0,48,0.00,,,0.00,tws,2013-03-13 16:40:00,
2013-03-13 12:45:00,43.7,25.4,29.76,North,-999,-999.0,-999.0,48,0.00,,,0.00,tws,2013-03-13 16:45:00,
2013-03-13 12:50:00,43.8,25.4,29.76,North,-999,-999.0,-999.0,47,0.00,,,0.00,tws,2013-03-13 16:50:00,
2013-03-13 12:55:00,44.1,25.1,29.76,North,-999,-999.0,-999.0,46,0.00,,,0.00,tws,2013-03-13 16:55:00,
2013-03-13 13:00:00,44.2,24.4,29.76,North,-999,-999.0,-999.0,45,0.00,,,0.00,tws,2013-03-13 17:00:00,
2013-03-13 13:05:00,43.6,22.1,29.76,North,-999,-999.0,-999.0,42,0.00,,,0.00,tws,2013-03-13 17:05:00,
2013-03-13 13:10:00,43.3,21.8,29.76,North,-999,-999.0,-999.0,42,0.00,,,0.00,tws,2013-03-13 17:10:00,
2013-03-13 13:15:00,43.7,22.4,29.76,North,-999,-999.0,-999.0,42,0.00,,,0.00,tws,2013-03-13 17:15:00,
2013-03-13 13:20:00,44.0,22.7,29.76,North,-999,-999.0,-999.0,42,0.00,,,0.00,tws,2013-03-13 17:20:00,
2013-03-13 13:25:00,43.7,21.4,29.75,North,-999,-999.0,-999.0,40,0.00,,,0.00,tws,2013-03-13 17:25:00,
2013-03-13 13:30:00,43.9,21.9,29.75,North,-999,-999.0,-999.0,41,0.00,,,0.00,tws,2013-03-13 17:30:00,
2013-03-13 13:35:00,44.0,21.1,29.75,North,-999,-999.0,-999.0,39,0.00,,,0.00,tws,2013-03-13 17:35:00,
2013-03-13 13:40:00,43.6,21.4,29.75,North,-999,-999.0,-999.0,41,0.00,,,0.00,tws,2013-03-13 17:40:00,
2013-03-13 13:45:00,44.2,21.9,29.75,North,-999,-999.0,-999.0,40,0.00,,,0.00,tws,2013-03-13 17:45:00,
2013-03-13 13:50:00,45.0,23.7,29.75,North,-999,-999.0,-999.0,42,0.00,,,0.00,tws,2013-03-13 17:50:00,
2013-03-13 13:55:00,45.4,24.7,29.75,North,-999,-999.0,-999.0,43,0.00,,,0.00,tws,2013-03-13 17:55:00,
2013-03-13 14:00:00,44.4,23.2,29.76,North,-999,-999.0,-999.0,42,0.00,,,0.00,tws,2013-03-13 18:00:00,
2013-03-13 14:05:00,43.1,22.8,29.76,North,-999,-999.0,-999.0,44,0.00,,,0.00,tws,2013-03-13 18:05:00,
2013-03-13 14:10:00,43.4,23.9,29.76,North,-999,-999.0,-999.0,45,0.00,,,0.00,tws,2013-03-13 18:10:00,
2013-03-13 14:15:00,43.9,23.6,29.76,North,-999,-999.0,-999.0,44,0.00,,,0.00,tws,2013-03-13 18:15:00,
2013-03-13 14:20:00,43.7,22.8,29.75,North,-999,-999.0,-999.0,43,0.00,,,0.00,tws,2013-03-13 18:20:00,
2013-03-13 14:25:00,44.1,24.2,29.75,North,-999,-999.0,-999.0,45,0.00,,,0.00,tws,2013-03-13 18:25:00,
2013-03-13 14:30:00,44.8,25.5,29.75,North,-999,-999.0,-999.0,46,0.00,,,0.00,tws,2013-03-13 18:30:00,
2013-03-13 14:35:00,45.3,24.8,29.75,North,-999,-999.0,-999.0,44,0.00,,,0.00,tws,2013-03-13 18:35:00,
2013-03-13 14:40:00,45.1,24.4,29.75,North,-999,-999.0,-999.0,43,0.00,,,0.00,tws,2013-03-13 18:40:00,
2013-03-13 14:45:00,44.1,23.9,29.75,North,-999,-999.0,-999.0,44,0.00,,,0.00,tws,2013-03-13 18:45:00,
2013-03-13 14:50:00,43.8,24.2,29.75,North,-999,-999.0,-999.0,45,0.00,,,0.00,tws,2013-03-13 18:50:00,
2013-03-13 14:55:00,44.2,24.1,29.75,North,-999,-999.0,-999.0,44,0.00,,,0.00,tws,2013-03-13 18:55:00,
2013-03-13 15:00:00,44.6,24.0,29.75,North,-999,-999.0,-999.0,43,0.00,,,0.00,tws,2013-03-13 19:00:00,
2013-03-13 15:05:00,44.6,23.3,29.74,North,-999,-999.0,-999.0,42,0.00,,,0.00,tws,2013-03-13 19:05:00,
2013-03-13 15:10:00,44.2,23.1,29.74,North,-999,-999.0,-999.0,42,0.00,,,0.00,tws,2013-03-13 19:10:00,
2013-03-13 15:15:00,43.5,21.9,29.74,North,-999,-999.0,-999.0,42,0.00,,,0.00,tws,2013-03-13 19:15:00,
2013-03-13 15:20:00,43.0,21.9,29.74,North,-999,-999.0,-999.0,42,0.00,,,0.00,tws,2013-03-13 19:20:00,
2013-03-13 15:25:00,43.3,22.7,29.75,North,-999,-999.0,-999.0,43,0.00,,,0.00,tws,2013-03-13 19:25:00,
2013-03-13 15:30:00,43.4,22.7,29.75,North,-999,-999.0,-999.0,43,0.00,,,0.00,tws,2013-03-13 19:30:00,
2013-03-13 15:35:00,43.4,22.4,29.74,North,-999,-999.0,-999.0,42,0.00,,,0.00,tws,2013-03-13 19:35:00,
2013-03-13 15:40:00,43.4,21.8,29.75,North,-999,-999.0,-999.0,41,0.00,,,0.00,tws,2013-03-13 19:40:00,
2013-03-13 15:45:00,42.9,21.3,29.75,North,-999,-999.0,-999.0,41,0.00,,,0.00,tws,2013-03-13 19:45:00,
2013-03-13 15:50:00,43.0,22.1,29.75,North,-999,-999.0,-999.0,43,0.00,,,0.00,tws,2013-03-13 19:50:00,
2013-03-13 15:55:00,42.7,21.6,29.76,North,-999,-999.0,-999.0,42,0.00,,,0.00,tws,2013-03-13 19:55:00,
2013-03-13 16:00:00,42.5,20.7,29.76,North,-999,-999.0,-999.0,41,0.00,,,0.00,tws,2013-03-13 20:00:00,
2013-03-13 16:05:00,42.5,21.1,29.76,North,-999,-999.0,-999.0,42,0.00,,,0.00,tws,2013-03-13 20:05:00,
2013-03-13 16:10:00,42.4,20.7,29.76,North,-999,-999.0,-999.0,41,0.00,,,0.00,tws,2013-03-13 20:10:00,
2013-03-13 16:15:00,42.2,20.7,29.76,North,-999,-999.0,-999.0,42,0.00,,,0.00,tws,2013-03-13 20:15:00,
2013-03-13 16:20:00,42.5,19.9,29.76,North,-999,-999.0,-999.0,40,0.00,,,0.00,tws,2013-03-13 20:20:00,
2013-03-13 16:25:00,42.2,20.6,29.76,North,-999,-999.0,-999.0,41,0.00,,,0.00,tws,2013-03-13 20:25:00,
2013-03-13 16:30:00,41.7,19.9,29.76,North,-999,-999.0,-999.0,41,0.00,,,0.00,tws,2013-03-13 20:30:00,
2013-03-13 16:35:00,41.2,19.6,29.76,North,-999,-999.0,-999.0,41,0.00,,,0.00,tws,2013-03-13 20:35:00,
2013-03-13 16:40:00,40.7,18.9,29.76,North,-999,-999.0,-999.0,41,0.00,,,0.00,tws,2013-03-13 20:40:00,
2013-03-13 16:45:00,40.4,18.7,29.77,North,-999,-999.0,-999.0,41,0.00,,,0.00,tws,2013-03-13 20:45:00,
2013-03-13 16:55:00,40.4,18.9,29.77,North,-999,-999.0,-999.0,41,0.00,,,0.00,tws,2013-03-13 20:55:00,
2013-03-13 17:00:00,40.3,19.8,29.77,North,-999,-999.0,-999.0,43,0.00,,,0.00,tws,2013-03-13 21:00:00,
2013-03-13 17:05:00,40.4,20.1,29.77,North,-999,-999.0,-999.0,43,0.00,,,0.00,tws,2013-03-13 21:05:00,
2013-03-13 17:10:00,40.3,19.9,29.77,North,-999,-999.0,-999.0,43,0.00,,,0.00,tws,2013-03-13 21:10:00,
2013-03-13 17:15:00,40.2,0.0,29.77,North,-999,-999.0,-999.0,-164,0.00,,,0.00,tws,2013-03-13 21:15:00,
2013-03-13 17:20:00,40.3,20.2,29.77,North,-999,-999.0,-999.0,44,0.00,,,0.00,tws,2013-03-13 21:20:00,
2013-03-13 17:25:00,40.4,21.1,29.77,North,-999,-999.0,-999.0,45,0.00,,,0.00,tws,2013-03-13 21:25:00,
2013-03-13 17:30:00,-167.8,-99.9,29.77,North,-999,-999.0,-999.0,45,0.00,,,0.00,tws,2013-03-13 21:30:00,
2013-03-13 17:40:00,38.7,0.0,3.83,North,-999,-999.0,-999.0,-158,0.00,,,0.00,tws,2013-03-13 21:40:00,
2013-03-13 17:45:00,38.1,27.3,3.82,North,-999,-999.0,-999.0,69,0.00,,,0.00,tws,2013-03-13 21:45:00,
2013-03-13 17:50:00,37.9,0.0,29.78,North,-999,-999.0,-999.0,-156,0.00,,,0.00,tws,2013-03-13 21:50:00,
2013-03-13 17:55:00,37.5,27.0,29.79,North,-999,-999.0,-999.0,69,0.00,,,0.00,tws,2013-03-13 21:55:00,
2013-03-13 18:00:00,37.6,22.8,29.79,North,-999,-999.0,-999.0,55,0.00,,,0.00,tws,2013-03-13 22:00:00,
2013-03-13 18:05:00,37.9,23.4,29.79,North,-999,-999.0,-999.0,55,0.00,,,0.00,tws,2013-03-13 22:05:00,
2013-03-13 18:10:00,38.0,22.4,29.79,North,-999,-999.0,-999.0,52,0.00,,,0.00,tws,2013-03-13 22:10:00,
2013-03-13 18:15:00,37.9,22.0,29.78,North,-999,-999.0,-999.0,52,0.00,,,0.00,tws,2013-03-13 22:15:00,
2013-03-13 18:20:00,37.9,22.2,29.79,North,-999,-999.0,-999.0,52,0.00,,,0.00,tws,2013-03-13 22:20:00,
2013-03-13 18:25:00,37.8,22.1,29.78,North,-999,-999.0,-999.0,52,0.00,,,0.00,tws,2013-03-13 22:25:00,
2013-03-13 18:30:00,38.0,22.5,29.78,North,-999,-999.0,-999.0,53,0.00,,,0.00,tws,2013-03-13 22:30:00,
2013-03-13 18:35:00,38.1,22.0,29.78,North,-999,-999.0,-999.0,52,0.00,,,0.00,tws,2013-03-13 22:35:00,
2013-03-13 18:40:00,37.6,21.1,29.78,North,-999,-999.0,-999.0,51,0.00,,,0.00,tws,2013-03-13 22:40:00,
2013-03-13 18:45:00,37.2,20.8,29.78,North,-999,-999.0,-999.0,51,0.00,,,0.00,tws,2013-03-13 22:45:00,
2013-03-13 18:50:00,37.2,21.1,29.78,North,-999,-999.0,-999.0,51,0.00,,,0.00,tws,2013-03-13 22:50:00,
2013-03-13 18:55:00,37.2,21.3,29.79,North,-999,-999.0,-999.0,52,0.00,,,0.00,tws,2013-03-13 22:55:00,
2013-03-13 19:00:00,36.9,21.3,29.79,North,-999,-999.0,-999.0,52,0.00,,,0.00,tws,2013-03-13 23:00:00,
2013-03-13 19:05:00,36.5,21.2,29.80,North,-999,-999.0,-999.0,53,0.00,,,0.00,tws,2013-03-13 23:05:00,
2013-03-13 19:10:00,36.3,20.9,29.80,North,-999,-999.0,-999.0,53,0.00,,,0.00,tws,2013-03-13 23:10:00,
2013-03-13 19:15:00,36.2,20.9,29.80,North,-999,-999.0,-999.0,53,0.00,,,0.00,tws,2013-03-13 23:15:00,
2013-03-13 19:20:00,36.0,20.9,29.80,North,-999,-999.0,-999.0,53,0.00,,,0.00,tws,2013-03-13 23:20:00,
2013-03-13 19:25:00,35.7,20.6,29.80,North,-999,-999.0,-999.0,53,0.00,,,0.00,tws,2013-03-13 23:25:00,
2013-03-13 19:30:00,35.4,20.1,29.80,North,-999,-999.0,-999.0,53,0.00,,,0.00,tws,2013-03-13 23:30:00,
2013-03-13 19:35:00,35.1,20.3,29.80,North,-999,-999.0,-999.0,54,0.00,,,0.00,tws,2013-03-13 23:35:00,
2013-03-13 19:40:00,34.8,20.3,29.81,North,-999,-999.0,-999.0,55,0.00,,,0.00,tws,2013-03-13 23:40:00,
2013-03-13 19:45:00,34.7,20.4,29.81,North,-999,-999.0,-999.0,55,0.00,,,0.00,tws,2013-03-13 23:45:00,
2013-03-13 19:50:00,34.6,20.6,29.81,North,-999,-999.0,-999.0,56,0.00,,,0.00,tws,2013-03-13 23:50:00,
2013-03-13 19:55:00,34.5,20.8,29.81,North,-999,-999.0,-999.0,57,0.00,,,0.00,tws,2013-03-13 23:55:00,
2013-03-13 20:00:00,34.4,20.5,29.81,North,-999,-999.0,-999.0,56,0.00,,,0.00,tws,2013-03-14 00:00:00,
2013-03-13 20:05:00,34.3,20.1,29.82,North,-999,-999.0,-999.0,55,0.00,,,0.00,tws,2013-03-14 00:05:00,
2013-03-13 20:10:00,34.2,20.5,29.82,North,-999,-999.0,-999.0,57,0.00,,,0.00,tws,2013-03-14 00:10:00,
2013-03-13 20:15:00,34.1,20.5,29.82,North,-999,-999.0,-999.0,57,0.00,,,0.00,tws,2013-03-14 00:15:00,
2013-03-13 20:20:00,34.1,20.4,29.82,North,-999,-999.0,-999.0,56,0.00,,,0.00,tws,2013-03-14 00:20:00,
2013-03-13 20:25:00,34.0,20.3,29.82,North,-999,-999.0,-999.0,57,0.00,,,0.00,tws,2013-03-14 00:25:00,
2013-03-13 20:30:00,33.8,19.7,29.82,North,-999,-999.0,-999.0,56,0.00,,,0.00,tws,2013-03-14 00:30:00,
2013-03-13 20:35:00,33.7,19.6,29.82,North,-999,-999.0,-999.0,55,0.00,,,0.00,tws,2013-03-14 00:35:00,
2013-03-13 20:40:00,33.6,19.9,29.82,North,-999,-999.0,-999.0,56,0.00,,,0.00,tws,2013-03-14 00:40:00,
2013-03-13 20:45:00,33.6,19.7,29.82,North,-999,-999.0,-999.0,56,0.00,,,0.00,tws,2013-03-14 00:45:00,
2013-03-13 20:50:00,33.6,19.9,29.83,North,-999,-999.0,-999.0,56,0.00,,,0.00,tws,2013-03-14 00:50:00,
2013-03-13 20:55:00,33.3,19.6,29.83,North,-999,-999.0,-999.0,56,0.00,,,0.00,tws,2013-03-14 00:55:00,
2013-03-13 21:00:00,33.3,19.6,29.83,North,-999,-999.0,-999.0,57,0.00,,,0.00,tws,2013-03-14 01:00:00,
2013-03-13 21:05:00,33.2,19.9,29.83,North,-999,-999.0,-999.0,57,0.00,,,0.00,tws,2013-03-14 01:05:00,
2013-03-13 21:10:00,33.2,19.8,29.83,North,-999,-999.0,-999.0,57,0.00,,,0.00,tws,2013-03-14 01:10:00,
2013-03-13 21:15:00,33.0,19.6,29.83,North,-999,-999.0,-999.0,57,0.00,,,0.00,tws,2013-03-14 01:15:00,
2013-03-13 21:20:00,32.9,19.4,29.84,North,-999,-999.0,-999.0,57,0.00,,,0.00,tws,2013-03-14 01:20:00,
2013-03-13 21:25:00,32.6,19.2,29.84,North,-999,-999.0,-999.0,57,0.00,,,0.00,tws,2013-03-14 01:25:00,
2013-03-13 21:30:00,32.5,19.4,29.84,North,-999,-999.0,-999.0,58,0.00,,,0.00,tws,2013-03-14 01:30:00,
2013-03-13 21:35:00,32.4,19.3,29.84,North,-999,-999.0,-999.0,58,0.00,,,0.00,tws,2013-03-14 01:35:00,
2013-03-13 21:40:00,32.3,19.5,29.85,North,-999,-999.0,-999.0,58,0.00,,,0.00,tws,2013-03-14 01:40:00,
2013-03-13 21:45:00,32.2,19.2,29.84,North,-999,-999.0,-999.0,58,0.00,,,0.00,tws,2013-03-14 01:45:00,
2013-03-13 21:50:00,32.1,19.1,29.85,North,-999,-999.0,-999.0,58,0.00,,,0.00,tws,2013-03-14 01:50:00,
2013-03-13 21:55:00,31.9,18.7,29.85,North,-999,-999.0,-999.0,57,0.00,,,0.00,tws,2013-03-14 01:55:00,
2013-03-13 22:00:00,31.8,18.9,29.84,North,-999,-999.0,-999.0,58,0.00,,,0.00,tws,2013-03-14 02:00:00,
2013-03-13 22:05:00,31.6,18.6,29.84,North,-999,-999.0,-999.0,58,0.00,,,0.00,tws,2013-03-14 02:05:00,
2013-03-13 22:10:00,31.5,18.5,29.84,North,-999,-999.0,-999.0,58,0.00,,,0.00,tws,2013-03-14 02:10:00,
2013-03-13 22:15:00,31.4,18.3,29.85,North,-999,-999.0,-999.0,58,0.00,,,0.00,tws,2013-03-14 02:15:00,
2013-03-13 22:20:00,31.3,18.2,29.85,North,-999,-999.0,-999.0,58,0.00,,,0.00,tws,2013-03-14 02:20:00,
2013-03-13 22:25:00,31.2,18.5,29.84,North,-999,-999.0,-999.0,58,0.00,,,0.00,tws,2013-03-14 02:25:00,
2013-03-13 22:30:00,31.2,18.4,29.84,North,-999,-999.0,-999.0,58,0.00,,,0.00,tws,2013-03-14 02:30:00,
2013-03-13 22:35:00,31.1,18.2,29.84,North,-999,-999.0,-999.0,58,0.00,,,0.00,tws,2013-03-14 02:35:00,
2013-03-13 22:40:00,30.9,18.3,29.85,North,-999,-999.0,-999.0,59,0.00,,,0.00,tws,2013-03-14 02:40:00,
2013-03-13 22:45:00,30.9,18.2,29.84,North,-999,-999.0,-999.0,59,0.00,,,0.00,tws,2013-03-14 02:45:00,
2013-03-13 22:50:00,30.8,17.9,29.84,North,-999,-999.0,-999.0,58,0.00,,,0.00,tws,2013-03-14 02:50:00,
2013-03-13 22:55:00,30.7,17.7,29.85,North,-999,-999.0,-999.0,58,0.00,,,0.00,tws,2013-03-14 02:55:00,
2013-03-13 23:00:00,30.5,17.2,29.84,North,-999,-999.0,-999.0,57,0.00,,,0.00,tws,2013-03-14 03:00:00,
2013-03-13 23:05:00,30.5,17.4,29.85,North,-999,-999.0,-999.0,58,0.00,,,0.00,tws,2013-03-14 03:05:00,
2013-03-13 23:10:00,30.4,17.2,29.85,North,-999,-999.0,-999.0,57,0.00,,,0.00,tws,2013-03-14 03:10:00,
2013-03-13 23:15:00,30.3,16.9,29.85,North,-999,-999.0,-999.0,57,0.00,,,0.00,tws,2013-03-14 03:15:00,
2013-03-13 23:20:00,30.2,17.0,29.84,North,-999,-999.0,-999.0,57,0.00,,,0.00,tws,2013-03-14 03:20:00,
2013-03-13 23:25:00,30.2,16.9,29.84,North,-999,-999.0,-999.0,57,0.00,,,0.00,tws,2013-03-14 03:25:00,
2013-03-13 23:30:00,30.2,17.0,29.84,North,-999,-999.0,-999.0,57,0.00,,,0.00,tws,2013-03-14 03:30:00,
2013-03-13 23:35:00,30.2,16.9,29.84,North,-999,-999.0,-999.0,57,0.00,,,0.00,tws,2013-03-14 03:35:00,
2013-03-13 23:40:00,30.1,16.7,29.84,North,-999,-999.0,-999.0,57,0.00,,,0.00,tws,2013-03-14 03:40:00,
2013-03-13 23:45:00,30.1,16.6,29.85,North,-999,-999.0,-999.0,57,0.00,,,0.00,tws,2013-03-14 03:45:00,
2013-03-13 23:50:00,30.0,16.6,29.85,North,-999,-999.0,-999.0,57,0.00,,,0.00,tws,2013-03-14 03:50:00,
2013-03-13 23:55:00,29.9,16.0,29.85,North,-999,-999.0,-999.0,56,0.00,,,0.00,tws,2013-03-14 03:55:00,